Aeroporto :







RITROVATECI SU...

 
LOGIN :

Iscrizione | Disclaimer

   EN    FR    IT 

 









Sommario :    VFR   VFR Marginale   IFR   IFR Intensivo   IFR Molto Intensivo
Visibilità : 
Base nubi : 
>= 8 km
>= 3000ft
5 / 8 km
1000 / 3000 ft
1500m / 5 km
500 / 1000 ft
800 / 1500m
200 / 500 ft
< 800m
< 200 ft
Simboli :   Temporali  Nebbia  Neve Forte  Precipitazioni Forti  Vento > 20 kt







- Altitudine del aeroporto : 20 ft
- Codice IATA : BOS


KBOS - General Edward Lawrence Logan International

ULTIMO METAR :
  • 250954Z 01008KT 10SM FEW025 FEW055 17/13 A3029 RMK AO2 SLP257 T01670128

METARs OBSOLETI :
  • 250854Z 01007KT 10SM FEW023 FEW055 17/13 A3029 RMK AO2 SLP255 T01720133 56001

TAF KBOS
Valido dal 25 a 08 ore il 26 a 12 ore UTC


250827Z 2508/2612 01005KT P6SM FEW020
TEMPO 2512/2515 P6SM BKN020
FM251500 04012G22KT P6SM VCSH BKN035
FM251800 06014G22KT P6SM BKN050
FM260000 03007KT P6SM SCT040
Nessun NOTAM noto per questo aeroporto.



MetMap, La meteo Aeronautica in un colpo d'occhio ! - Copyright ORBIFLY Dicembre 2007 - Disclaimer

ORBIFLY MET'MAP TEAM :

Programmazione e sviluppo : Alexandra Zaïnal
Concezione e sviluppo : Baudouin d'Aumeries
Co-Programmazione e sviluppo : Marc-Olivier Méhu
Supporto tecnico e logistico : Manuel Goepfert
Aiuto per la traduzione : Arnaldo La Scala

Contatto : metmap@orbifly.com




FONTI E CREDITI :

   NOAA